Atwater, California
Current Conditions -  °F | °C
As of 11:45 AM on Sunday 23 Nov 2014 (Local Time) from KMER Reporting Station
Scattered Clouds Scattered Clouds  
Wind Chill: 57°   Ceiling: Unl
Heat Index: 57°   Visibility: 10mi
Dew Point: 52°   Wind: 8mph
Humidity: 82%   Direction: 360°N
Pressure: 30.33"   Gusts: NA
Location:  37.35°N, 120.6°W
Report Text: KMER 231945Z 36007KT 10SM FEW036 SCT100 14/11 A3033
Loading
Personal Weather Stations






























Interactive Weather Map New forecast layout! Learn more

10-Day Weather Forecast

Advertisements
Track Severe Weather on mobile